Time;durP1;ratioP1;P1;durP2;ratioP2;P2;SDS_P1;SDS_P2;PMS_P1;PMS_P2;Temp;Humidity;BMP_temperature;BMP_pressure;BME280_temperature;BME280_humidity;BME280_pressure;Samples;Min_cycle;Max_cycle;Signal;HPM_P1;HPM_P2
2023/09/18 00:00:35;;;;;;;8.60;4.20;;;17.10;99.90;;;;;;6216371;23;20504;-92
2023/09/18 00:03:02;;;;;;;5.00;4.60;;;17.20;99.90;;;;;;6216576;23;20646;-91
2023/09/18 00:05:29;;;;;;;6.53;5.40;;;17.20;99.90;;;;;;6215602;23;20613;-92
2023/09/18 00:07:56;;;;;;;5.45;4.25;;;17.10;99.90;;;;;;6214978;23;20170;-92
2023/09/18 00:10:23;;;;;;;4.47;4.07;;;17.10;99.90;;;;;;6217154;23;20181;-92
2023/09/18 00:12:50;;;;;;;5.20;3.85;;;17.10;99.90;;;;;;6223665;23;20174;-91
2023/09/18 00:15:18;;;;;;;5.80;4.07;;;17.10;99.90;;;;;;6222151;23;20675;-92
2023/09/18 00:17:45;;;;;;;4.25;3.95;;;17.10;99.90;;;;;;6215983;23;20244;-92
2023/09/18 00:20:13;;;;;;;5.60;4.03;;;17.10;99.90;;;;;;6215598;23;20198;-92
2023/09/18 00:22:40;;;;;;;4.38;3.83;;;17.10;99.90;;;;;;6215077;23;20636;-92
2023/09/18 00:25:07;;;;;;;3.90;3.60;;;17.00;99.90;;;;;;6214792;23;20173;-92
2023/09/18 00:27:36;;;;;;;4.38;3.97;;;17.00;99.90;;;;;;6186844;23;20244;-92
2023/09/18 00:30:07;;;;;;;5.38;3.60;;;17.00;99.90;;;;;;6215290;23;20174;-91
2023/09/18 00:32:35;;;;;;;4.60;3.75;;;17.00;99.90;;;;;;6214350;23;20174;-90
2023/09/18 00:35:02;;;;;;;4.05;3.65;;;17.00;99.90;;;;;;6188299;23;20174;-91
2023/09/18 00:37:32;;;;;;;5.63;4.38;;;16.90;99.90;;;;;;6215778;23;20175;-92
2023/09/18 00:39:59;;;;;;;5.25;4.10;;;16.90;99.90;;;;;;6188427;23;20546;-91
2023/09/18 00:42:26;;;;;;;4.85;3.95;;;17.00;99.90;;;;;;6213913;23;20174;-92
2023/09/18 00:44:53;;;;;;;7.57;6.38;;;16.90;99.90;;;;;;6213093;23;20180;-91
2023/09/18 00:47:20;;;;;;;4.97;3.40;;;16.90;99.90;;;;;;6214454;23;20173;-91
2023/09/18 00:49:50;;;;;;;4.35;3.95;;;16.90;99.90;;;;;;6162906;23;20178;-92
2023/09/18 00:52:18;;;;;;;9.93;7.35;;;16.90;99.90;;;;;;6214535;23;20200;-91
2023/09/18 00:54:47;;;;;;;3.60;3.30;;;17.00;99.90;;;;;;6214301;23;20182;-91
2023/09/18 00:57:18;;;;;;;3.90;3.50;;;16.90;99.90;;;;;;6213125;23;20184;-92
2023/09/18 00:59:45;;;;;;;5.20;3.35;;;16.80;99.90;;;;;;6213801;23;20190;-92
2023/09/18 01:02:12;;;;;;;4.35;3.55;;;16.80;99.90;;;;;;6213160;23;20240;-91
2023/09/18 01:04:44;;;;;;;4.20;3.80;;;16.90;99.90;;;;;;6185595;23;20236;-91
2023/09/18 01:07:12;;;;;;;4.13;3.33;;;16.80;99.90;;;;;;6188056;23;20158;-92
2023/09/18 01:09:39;;;;;;;6.22;3.78;;;16.80;99.90;;;;;;6213029;23;20203;-91
2023/09/18 01:12:12;;;;;;;6.03;3.55;;;16.90;99.90;;;;;;6213005;23;20212;-91
2023/09/18 01:14:45;;;;;;;6.13;3.22;;;16.80;99.90;;;;;;6187152;23;20165;-91
2023/09/18 01:17:13;;;;;;;8.43;6.43;;;16.70;99.90;;;;;;6187101;23;20180;-91
2023/09/18 01:19:44;;;;;;;4.82;3.42;;;16.70;99.90;;;;;;6212330;23;20186;-91
2023/09/18 01:22:14;;;;;;;7.30;3.70;;;16.70;99.90;;;;;;6212447;23;20536;-92
2023/09/18 01:24:43;;;;;;;5.63;3.33;;;16.70;99.90;;;;;;6185115;23;20178;-92
2023/09/18 01:27:12;;;;;;;6.22;3.70;;;16.70;99.90;;;;;;6211162;23;20200;-91
2023/09/18 01:29:39;;;;;;;6.18;3.38;;;16.70;99.90;;;;;;6211556;23;20177;-91
2023/09/18 01:32:10;;;;;;;3.45;2.92;;;16.60;99.90;;;;;;6212836;23;20193;-92
2023/09/18 01:34:39;;;;;;;5.25;3.60;;;16.60;99.90;;;;;;6184946;23;20176;-91
2023/09/18 01:37:09;;;;;;;6.90;3.40;;;16.60;99.90;;;;;;6213892;23;20170;-91
2023/09/18 01:39:36;;;;;;;3.83;3.53;;;16.60;99.90;;;;;;6212898;23;20193;-92
2023/09/18 01:42:06;;;;;;;4.93;3.33;;;16.50;99.90;;;;;;6213607;23;20174;-92
2023/09/18 01:44:34;;;;;;;4.05;3.38;;;16.50;99.90;;;;;;6212427;23;20174;-92
2023/09/18 01:47:03;;;;;;;5.22;3.42;;;16.50;99.90;;;;;;6213551;23;20180;-92
2023/09/18 01:49:35;;;;;;;3.75;3.35;;;16.40;99.90;;;;;;6213284;23;20544;-91
2023/09/18 01:52:02;;;;;;;4.05;3.40;;;16.40;99.90;;;;;;6211641;23;20194;-90
2023/09/18 01:54:29;;;;;;;5.45;3.47;;;16.40;99.90;;;;;;6210381;23;20170;-92
2023/09/18 01:56:56;;;;;;;4.75;3.42;;;16.40;99.90;;;;;;6212723;23;20178;-92
2023/09/18 01:59:27;;;;;;;3.80;3.35;;;16.40;99.90;;;;;;6212284;23;20194;-92
2023/09/18 02:01:54;;;;;;;4.10;3.45;;;16.50;99.90;;;;;;6136435;23;1149512;-91
2023/09/18 02:04:21;;;;;;;4.78;3.10;;;16.40;99.90;;;;;;6214850;23;20178;-91
2023/09/18 02:06:52;;;;;;;7.20;3.42;;;16.40;99.90;;;;;;6222953;23;20225;-91
2023/09/18 02:09:19;;;;;;;4.85;4.18;;;16.40;99.90;;;;;;6217777;23;20208;-92
2023/09/18 02:11:48;;;;;;;3.55;3.17;;;16.50;99.90;;;;;;6219499;23;20654;-91
2023/09/18 02:14:17;;;;;;;5.75;3.20;;;16.50;99.90;;;;;;6218308;23;20174;-91
2023/09/18 02:16:46;;;;;;;5.47;3.92;;;16.50;99.30;;;;;;6214051;23;20173;-91
2023/09/18 02:19:14;;;;;;;4.20;3.28;;;16.50;99.70;;;;;;6187678;23;20205;-92
2023/09/18 02:21:42;;;;;;;5.80;3.70;;;16.50;99.40;;;;;;6188205;23;20181;-92
2023/09/18 02:24:09;;;;;;;5.47;3.50;;;16.70;99.40;;;;;;6187484;23;20193;-91
2023/09/18 02:26:36;;;;;;;5.95;3.35;;;16.60;99.30;;;;;;6214779;23;20174;-92
2023/09/18 02:29:06;;;;;;;4.35;3.20;;;16.60;98.70;;;;;;6213776;23;20197;-91
2023/09/18 02:31:33;;;;;;;5.10;3.60;;;16.60;99.00;;;;;;6212810;23;20172;-91
2023/09/18 02:34:01;;;;;;;5.25;3.42;;;16.50;98.80;;;;;;6163036;23;20177;-91
2023/09/18 02:36:28;;;;;;;3.50;3.00;;;16.40;99.00;;;;;;6213758;23;20174;-92
2023/09/18 02:38:55;;;;;;;4.13;3.38;;;16.30;98.80;;;;;;6214023;23;20176;-92
2023/09/18 02:41:22;;;;;;;3.80;3.05;;;16.30;99.30;;;;;;6213887;23;20253;-92
2023/09/18 02:43:52;;;;;;;6.43;3.20;;;16.40;99.50;;;;;;6186857;23;20221;-91
2023/09/18 02:46:18;;;;;;;6.00;3.25;;;16.40;99.30;;;;;;6214164;23;20182;-91
2023/09/18 02:48:45;;;;;;;6.32;4.00;;;16.30;99.20;;;;;;6212812;23;20252;-91
2023/09/18 02:51:14;;;;;;;6.13;3.60;;;16.40;99.60;;;;;;6213639;23;20244;-92
2023/09/18 02:53:40;;;;;;;4.10;3.50;;;16.40;99.30;;;;;;6213034;23;20228;-91
2023/09/18 02:56:07;;;;;;;4.60;3.20;;;16.50;99.10;;;;;;6213872;23;20248;-90
2023/09/18 02:58:34;;;;;;;5.32;3.30;;;16.40;98.70;;;;;;6187290;23;20169;-91
2023/09/18 03:01:03;;;;;;;5.35;3.60;;;16.40;98.70;;;;;;6187520;23;20508;-91
2023/09/18 03:03:30;;;;;;;5.65;3.42;;;16.40;98.60;;;;;;6213441;23;20767;-92
2023/09/18 03:06:02;;;;;;;4.03;3.30;;;16.40;98.40;;;;;;6212900;23;20174;-91
2023/09/18 03:08:31;;;;;;;3.83;3.20;;;16.40;98.20;;;;;;6213515;23;20274;-91
2023/09/18 03:11:00;;;;;;;3.72;3.30;;;16.40;97.80;;;;;;6214116;23;20472;-91
2023/09/18 03:13:28;;;;;;;4.20;3.05;;;16.30;97.70;;;;;;6213909;23;20181;-92
2023/09/18 03:15:56;;;;;;;5.30;3.30;;;16.50;97.20;;;;;;6213195;23;20605;-91
2023/09/18 03:18:23;;;;;;;3.28;2.83;;;16.50;97.30;;;;;;6213653;23;20202;-91
2023/09/18 03:20:49;;;;;;;6.93;3.13;;;16.60;97.30;;;;;;6212486;23;20193;-91
2023/09/18 03:23:20;;;;;;;4.53;3.20;;;16.50;97.20;;;;;;6214052;23;20178;-92
2023/09/18 03:25:48;;;;;;;3.75;3.03;;;16.50;97.30;;;;;;6186227;23;20636;-92
2023/09/18 03:28:15;;;;;;;6.68;3.33;;;16.50;97.30;;;;;;6188069;23;20170;-91
2023/09/18 03:30:42;;;;;;;7.78;2.90;;;16.50;97.30;;;;;;6213697;23;20499;-92
2023/09/18 03:33:09;;;;;;;4.68;3.20;;;16.60;97.30;;;;;;6212887;23;20244;-91
2023/09/18 03:35:47;;;;;;;3.58;2.80;;;16.60;97.30;;;;;;6161125;23;20217;-91
2023/09/18 03:38:14;;;;;;;3.45;3.15;;;16.60;97.30;;;;;;6186650;23;20205;-92
2023/09/18 03:40:41;;;;;;;6.80;3.10;;;16.60;97.30;;;;;;6187903;23;20193;-91
2023/09/18 03:43:09;;;;;;;5.13;3.45;;;16.60;97.30;;;;;;6213195;23;20170;-91
2023/09/18 03:45:36;;;;;;;4.57;3.30;;;16.60;97.30;;;;;;6213371;23;20192;-92
2023/09/18 03:48:04;;;;;;;6.18;3.38;;;16.70;97.30;;;;;;6213032;23;20170;-91
2023/09/18 03:50:31;;;;;;;5.47;3.13;;;16.50;97.30;;;;;;6187335;23;20201;-92
2023/09/18 03:52:57;;;;;;;3.83;3.15;;;16.40;97.20;;;;;;6213882;23;20176;-92
2023/09/18 03:55:24;;;;;;;6.88;3.25;;;16.40;97.20;;;;;;6213249;23;20170;-92
2023/09/18 03:57:52;;;;;;;5.80;2.97;;;16.30;97.20;;;;;;6187004;23;20198;-92
2023/09/18 04:00:23;;;;;;;5.72;3.10;;;16.40;96.60;;;;;;6187526;23;20193;-92
2023/09/18 04:02:49;;;;;;;7.15;3.70;;;16.50;97.20;;;;;;6212606;23;20551;-92
2023/09/18 04:05:16;;;;;;;4.22;3.20;;;16.60;97.30;;;;;;6186910;23;20561;-92
2023/09/18 04:07:46;;;;;;;6.80;3.40;;;16.60;96.70;;;;;;6161925;23;20201;-92
2023/09/18 04:10:18;;;;;;;3.70;2.78;;;16.60;96.50;;;;;;6213810;23;20210;-91
2023/09/18 04:12:46;;;;;;;7.18;3.03;;;16.40;96.30;;;;;;6213200;23;20197;-92
2023/09/18 04:15:15;;;;;;;4.15;3.05;;;16.40;96.30;;;;;;6214420;23;20170;-92
2023/09/18 04:17:43;;;;;;;9.07;3.20;;;16.50;96.70;;;;;;6214723;23;20683;-91
2023/09/18 04:20:12;;;;;;;3.25;2.67;;;16.40;96.60;;;;;;6214393;23;20190;-92
2023/09/18 04:22:44;;;;;;;6.25;3.33;;;16.30;96.20;;;;;;6189389;23;20182;-91
2023/09/18 04:25:11;;;;;;;5.50;3.45;;;16.30;96.80;;;;;;6214458;23;20197;-92
2023/09/18 04:27:38;;;;;;;4.65;3.28;;;16.30;97.00;;;;;;6187807;23;20241;-91
2023/09/18 04:30:08;;;;;;;5.57;3.80;;;16.30;97.20;;;;;;6214726;23;20184;-92
2023/09/18 04:32:36;;;;;;;7.53;3.47;;;16.40;97.50;;;;;;6164420;23;20170;-91
2023/09/18 04:35:06;;;;;;;5.78;3.47;;;16.40;97.20;;;;;;6186540;23;20174;-91
2023/09/18 04:37:36;;;;;;;7.28;3.65;;;16.40;96.70;;;;;;6215333;23;20224;-91
2023/09/18 04:40:09;;;;;;;6.63;4.18;;;16.30;96.80;;;;;;6214785;23;20230;-91
2023/09/18 04:42:36;;;;;;;5.72;3.50;;;16.30;96.80;;;;;;6214856;23;20170;-92
2023/09/18 04:45:03;;;;;;;6.97;3.90;;;16.20;96.70;;;;;;6187673;23;20174;-91
2023/09/18 04:47:30;;;;;;;5.45;3.33;;;16.20;97.20;;;;;;6214768;23;20230;-91
2023/09/18 04:49:57;;;;;;;5.47;3.20;;;16.20;97.20;;;;;;6212679;23;20623;-90
2023/09/18 04:52:26;;;;;;;8.77;3.60;;;16.10;97.20;;;;;;6213662;23;20201;-90
2023/09/18 04:54:54;;;;;;;4.00;3.60;;;15.90;97.10;;;;;;6214290;23;20253;-90
2023/09/18 04:57:22;;;;;;;6.35;3.80;;;16.00;97.50;;;;;;6213979;23;20640;-90
2023/09/18 04:59:49;;;;;;;6.03;3.50;;;15.90;97.10;;;;;;6214144;23;20176;-91
2023/09/18 05:02:16;;;;;;;5.60;3.35;;;15.90;97.10;;;;;;6186420;23;20209;-90
2023/09/18 05:04:43;;;;;;;4.85;3.55;;;16.00;97.10;;;;;;6213702;23;20532;-92
2023/09/18 05:07:09;;;;;;;6.50;3.67;;;15.90;97.10;;;;;;6214998;23;20174;-93
2023/09/18 05:09:38;;;;;;;4.82;3.25;;;16.00;97.10;;;;;;6216535;23;20213;-92
2023/09/18 05:12:08;;;;;;;5.38;3.53;;;16.00;97.10;;;;;;6214400;23;20181;-91
2023/09/18 05:14:35;;;;;;;9.57;3.22;;;16.00;96.80;;;;;;6188491;23;20479;-91
2023/09/18 05:17:02;;;;;;;6.43;3.55;;;16.00;96.40;;;;;;6212540;23;20196;-92
2023/09/18 05:19:29;;;;;;;7.55;3.42;;;16.10;96.80;;;;;;6217668;23;20162;-90
2023/09/18 05:21:56;;;;;;;5.20;3.15;;;16.10;96.40;;;;;;6185855;23;20204;-93
2023/09/18 05:24:27;;;;;;;6.22;3.45;;;16.10;96.40;;;;;;6213110;23;20176;-92
2023/09/18 05:26:55;;;;;;;4.13;3.33;;;16.10;96.50;;;;;;6189907;23;20162;-92
2023/09/18 05:29:22;;;;;;;5.72;3.33;;;16.20;96.90;;;;;;6216269;23;20209;-91
2023/09/18 05:31:49;;;;;;;7.38;3.58;;;16.40;96.40;;;;;;6186379;23;20453;-91
2023/09/18 05:34:16;;;;;;;3.85;3.20;;;16.40;95.90;;;;;;6213449;23;20174;-92
2023/09/18 05:36:43;;;;;;;6.30;3.45;;;16.40;95.80;;;;;;6162693;23;20174;-92
2023/09/18 05:39:12;;;;;;;6.65;3.05;;;16.60;96.10;;;;;;6214516;23;20178;-92
2023/09/18 05:41:39;;;;;;;7.43;3.65;;;16.60;96.00;;;;;;6213828;23;20529;-92
2023/09/18 05:44:09;;;;;;;6.45;3.63;;;16.70;95.50;;;;;;6214695;23;20215;-92
2023/09/18 05:46:43;;;;;;;6.15;3.50;;;16.60;95.60;;;;;;6212098;23;20178;-92
2023/09/18 05:49:10;;;;;;;4.75;3.47;;;16.60;95.70;;;;;;6189262;23;20180;-92
2023/09/18 05:51:37;;;;;;;4.25;3.30;;;16.80;96.00;;;;;;6214088;23;20193;-92
2023/09/18 05:54:04;;;;;;;9.57;3.65;;;17.00;95.90;;;;;;6187794;23;20174;-92
2023/09/18 05:56:31;;;;;;;6.63;3.53;;;17.00;95.60;;;;;;6214862;23;20174;-92
2023/09/18 05:58:58;;;;;;;5.13;3.47;;;17.00;96.10;;;;;;6187713;23;20180;-93
2023/09/18 06:01:27;;;;;;;7.18;3.40;;;17.10;95.80;;;;;;6187108;23;20540;-93
2023/09/18 06:03:54;;;;;;;9.25;3.38;;;17.50;95.00;;;;;;6213737;23;20178;-92
2023/09/18 06:06:21;;;;;;;6.75;3.72;;;17.60;94.50;;;;;;6214760;23;20754;-93
2023/09/18 06:08:48;;;;;;;5.60;3.85;;;17.70;94.40;;;;;;6214962;23;20205;-92
2023/09/18 06:11:14;;;;;;;10.20;3.53;;;17.80;94.10;;;;;;6214404;23;20173;-93
2023/09/18 06:13:41;;;;;;;6.00;3.85;;;17.80;94.20;;;;;;6215977;23;20173;-92
2023/09/18 06:16:08;;;;;;;6.32;3.55;;;17.80;94.10;;;;;;6217681;23;20545;-93
2023/09/18 06:18:38;;;;;;;6.05;3.70;;;17.70;94.80;;;;;;6216901;23;20174;-93
2023/09/18 06:21:05;;;;;;;9.77;3.60;;;17.80;94.90;;;;;;6217434;23;20194;-92
2023/09/18 06:23:33;;;;;;;7.55;3.50;;;17.90;93.40;;;;;;6212014;23;20224;-92
2023/09/18 06:26:01;;;;;;;6.60;3.45;;;18.00;92.90;;;;;;6162107;23;20180;-92
2023/09/18 06:28:28;;;;;;;8.57;3.83;;;18.10;92.50;;;;;;6187913;23;20234;-92
2023/09/18 06:30:55;;;;;;;8.65;3.30;;;18.10;92.20;;;;;;6212723;23;20380;-92
2023/09/18 06:33:22;;;;;;;6.03;3.03;;;18.10;92.20;;;;;;6214950;23;20182;-94
2023/09/18 06:35:51;;;;;;;6.53;3.40;;;18.20;92.20;;;;;;6216160;23;20174;-92
2023/09/18 06:38:20;;;;;;;9.65;3.83;;;18.30;92.30;;;;;;6189858;23;20244;-92
2023/09/18 06:40:47;;;;;;;10.52;3.80;;;18.40;92.30;;;;;;6188186;23;20225;-91
2023/09/18 06:43:14;;;;;;;6.18;3.42;;;18.40;92.30;;;;;;6216112;23;20182;-92
2023/09/18 06:45:41;;;;;;;7.13;3.75;;;18.60;91.80;;;;;;6216336;23;20174;-94
2023/09/18 06:48:07;;;;;;;8.60;4.03;;;18.70;90.60;;;;;;6220554;23;20265;-93
2023/09/18 06:50:34;;;;;;;8.25;4.10;;;18.80;90.40;;;;;;6192600;23;20206;-93
2023/09/18 06:55:36;;;;;;;11.45;4.05;;;19.10;90.10;;;;;;6184424;22;20235;-89
2023/09/18 06:58:03;;;;;;;9.40;4.30;;;19.30;84.10;;;;;;6188095;22;20186;-90
2023/09/18 07:00:30;;;;;;;7.15;4.20;;;19.50;80.50;;;;;;6229501;22;20200;-93
2023/09/18 07:02:57;;;;;;;11.32;4.32;;;19.50;80.50;;;;;;6187686;22;20273;-90
2023/09/18 07:07:59;;;;;;;7.97;4.40;;;19.30;82.40;;;;;;6184584;22;20173;-93
2023/09/18 07:33:46;;;;;;;7.45;4.20;;;20.60;81.20;;;;;;6173864;22;20208;-91
2023/09/18 07:41:24;;;;;;;10.10;4.25;;;21.40;70.10;;;;;;6096408;23;20864;-92
2023/09/18 07:46:27;;;;;;;15.00;4.90;;;21.60;66.10;;;;;;6119797;23;20199;-89
2023/09/18 07:48:55;;;;;;;10.98;3.90;;;21.50;63.00;;;;;;6156235;23;20207;-93
2023/09/18 07:51:23;;;;;;;8.73;3.90;;;21.60;61.80;;;;;;6175284;23;20190;-90
2023/09/18 08:29:58;;;;;;;7.05;4.22;;;22.70;58.30;;;;;;6097138;23;20183;-91
2023/09/18 08:32:25;;;;;;;9.68;3.90;;;22.80;58.40;;;;;;6162540;23;20266;-90
2023/09/18 08:34:52;;;;;;;6.82;3.90;;;22.90;58.50;;;;;;6137631;23;20207;-92
2023/09/18 08:37:19;;;;;;;5.97;3.80;;;23.00;58.60;;;;;;6133141;23;20294;-92
2023/09/18 08:39:45;;;;;;;8.15;3.95;;;22.90;58.60;;;;;;6174771;23;20510;-90
2023/09/18 08:42:14;;;;;;;6.53;4.00;;;23.00;58.60;;;;;;6165781;23;20201;-88
2023/09/18 08:57:42;;;;;;;7.13;4.63;;;22.80;58.40;;;;;;6135565;23;21468;-90
2023/09/18 09:00:16;;;;;;;7.13;3.80;;;22.70;60.00;;;;;;6150654;23;20753;-90
2023/09/18 09:02:43;;;;;;;6.72;4.13;;;22.60;61.60;;;;;;6166436;23;20258;-91
2023/09/18 09:05:10;;;;;;;7.82;4.20;;;22.60;59.90;;;;;;6142017;23;20202;-91
2023/09/18 09:07:37;;;;;;;6.78;3.90;;;22.50;64.10;;;;;;6167233;23;20176;-90
2023/09/18 09:10:04;;;;;;;5.07;4.18;;;22.50;64.00;;;;;;6158790;23;20226;-92
2023/09/18 09:15:18;;;;;;;10.02;3.80;;;22.60;58.30;;;;;;6168568;23;20519;-93
2023/09/18 09:17:45;;;;;;;9.85;4.05;;;22.50;59.20;;;;;;6151099;23;20203;-91
2023/09/18 09:33:18;;;;;;;6.93;3.58;;;22.30;63.40;;;;;;6114791;23;20176;-92
2023/09/18 09:35:45;;;;;;;5.38;3.90;;;22.60;58.30;;;;;;6111714;23;20176;-92
2023/09/18 09:38:15;;;;;;;5.53;3.75;;;22.90;58.50;;;;;;6086250;23;20188;-93
2023/09/18 09:40:45;;;;;;;7.90;3.90;;;23.10;56.60;;;;;;6134837;23;20176;-93
2023/09/18 09:43:14;;;;;;;10.07;4.18;;;23.50;54.20;;;;;;6132509;23;20187;-90
2023/09/18 09:45:43;;;;;;;14.80;4.10;;;23.50;53.40;;;;;;6148294;23;20163;-90
2023/09/18 09:48:10;;;;;;;11.10;4.50;;;23.70;53.10;;;;;;6133644;23;20199;-87
2023/09/18 09:58:31;;;;;;;11.07;3.80;;;24.30;46.70;;;;;;6164521;23;20218;-92
2023/09/18 10:01:05;;;;;;;6.03;3.90;;;24.30;42.70;;;;;;6141831;23;20243;-90
2023/09/18 10:03:34;;;;;;;13.75;4.55;;;24.10;46.20;;;;;;6164682;23;20446;-88
2023/09/18 10:06:03;;;;;;;11.50;7.18;;;23.70;49.30;;;;;;6169104;23;20157;-92
2023/09/18 10:08:30;;;;;;;10.48;5.90;;;23.60;52.00;;;;;;6172370;23;20178;-94
2023/09/18 10:11:03;;;;;;;12.60;4.20;;;23.60;51.70;;;;;;6167303;23;20183;-92
2023/09/18 10:13:34;;;;;;;10.77;4.15;;;24.00;47.20;;;;;;6116706;23;20210;-90
2023/09/18 10:16:06;;;;;;;8.90;4.53;;;24.00;46.90;;;;;;6093461;23;20217;-92
2023/09/18 10:18:43;;;;;;;8.52;3.85;;;23.80;47.20;;;;;;6164229;23;20192;-91
2023/09/18 10:26:25;;;;;;;8.93;4.40;;;23.50;48.80;;;;;;6095269;23;20875;-91
2023/09/18 10:28:56;;;;;;;8.40;4.10;;;23.50;50.60;;;;;;6091640;23;20214;-90
2023/09/18 10:36:29;;;;;;;11.80;4.07;;;23.60;52.00;;;;;;6117286;23;20173;-92
2023/09/18 10:38:57;;;;;;;9.70;3.90;;;23.60;50.70;;;;;;6111620;23;20187;-89
2023/09/18 10:41:27;;;;;;;10.07;4.35;;;23.70;52.30;;;;;;6102413;23;20279;-92
2023/09/18 10:43:57;;;;;;;11.32;3.63;;;23.80;47.70;;;;;;6146434;23;20218;-92
2023/09/18 11:04:28;;;;;;;8.10;4.10;;;23.60;47.60;;;;;;6123559;23;20264;-93
2023/09/18 11:07:09;;;;;;;13.93;4.80;;;23.70;48.10;;;;;;6170916;23;20210;-92
2023/09/18 11:09:44;;;;;;;12.25;3.95;;;23.80;46.80;;;;;;6138062;23;20164;-92
2023/09/18 11:12:12;;;;;;;13.05;4.47;;;23.70;48.00;;;;;;6160616;23;20717;-92
2023/09/18 11:14:52;;;;;;;10.52;4.32;;;23.80;48.70;;;;;;6162370;23;20668;-93
2023/09/18 11:17:36;;;;;;;11.02;4.00;;;24.10;46.10;;;;;;6168330;23;20171;-92
2023/09/18 11:20:19;;;;;;;8.52;4.07;;;24.30;46.90;;;;;;6160957;23;20186;-92
2023/09/18 11:22:49;;;;;;;10.05;3.88;;;24.20;46.20;;;;;;6161352;23;20201;-93
2023/09/18 11:25:47;;;;;;;12.98;3.95;;;24.20;45.70;;;;;;6136878;23;20171;-92
2023/09/18 11:28:17;;;;;;;8.98;4.45;;;24.20;43.80;;;;;;6050839;23;20192;-90
2023/09/18 11:30:58;;;;;;;16.25;5.07;;;24.00;45.30;;;;;;6141602;23;20649;-92
2023/09/18 11:36:06;;;;;;;11.25;5.45;;;23.70;45.10;;;;;;6122506;23;21081;-89
2023/09/18 11:46:20;;;;;;;12.85;4.15;;;23.10;47.20;;;;;;6115387;23;20203;-89
2023/09/18 11:56:35;;;;;;;9.82;3.22;;;22.40;51.30;;;;;;6115335;23;20210;-91
2023/09/18 11:59:04;;;;;;;7.35;2.67;;;22.20;54.50;;;;;;6169261;23;20257;-91
2023/09/18 12:01:35;;;;;;;7.25;2.10;;;22.10;56.00;;;;;;6140938;23;20195;-91
2023/09/18 12:19:35;;;;;;;5.88;2.85;;;21.00;67.90;;;;;;6127178;23;20258;-92
2023/09/18 12:22:02;;;;;;;8.02;2.55;;;21.00;68.70;;;;;;6166641;23;20214;-91
2023/09/18 12:24:29;;;;;;;6.13;2.55;;;20.80;69.00;;;;;;6151681;23;20258;-91
2023/09/18 12:32:13;;;;;;;6.45;2.53;;;20.40;75.80;;;;;;6155347;23;20191;-91
2023/09/18 12:34:42;;;;;;;6.00;2.35;;;20.20;79.40;;;;;;6172754;23;20176;-94
2023/09/18 12:37:10;;;;;;;6.85;2.40;;;20.00;80.80;;;;;;6142497;23;20206;-92
2023/09/18 12:39:37;;;;;;;6.20;2.10;;;19.80;82.40;;;;;;6168402;23;20257;-92
2023/09/18 12:42:06;;;;;;;5.38;2.33;;;19.70;85.90;;;;;;6130886;23;20202;-94
2023/09/18 12:44:33;;;;;;;5.65;2.47;;;19.70;87.10;;;;;;6143041;23;20190;-92
2023/09/18 12:47:00;;;;;;;4.57;2.17;;;19.70;87.40;;;;;;6132881;23;20182;-92
2023/09/18 12:49:32;;;;;;;7.05;2.33;;;19.70;87.80;;;;;;6157863;23;20176;-91
2023/09/18 12:52:00;;;;;;;3.38;1.83;;;19.70;89.20;;;;;;6163809;23;20191;-93
2023/09/18 12:57:17;;;;;;;5.47;1.90;;;19.70;90.10;;;;;;6166153;23;20207;-92
2023/09/18 12:59:44;;;;;;;3.63;1.90;;;19.50;90.40;;;;;;6135942;23;20202;-94
2023/09/18 13:02:18;;;;;;;6.90;2.45;;;19.40;90.70;;;;;;6136671;23;20211;-93
2023/09/18 13:04:53;;;;;;;3.95;1.70;;;19.20;91.50;;;;;;6154967;23;20175;-94
2023/09/18 13:07:20;;;;;;;5.18;2.00;;;19.10;92.40;;;;;;6160124;23;20167;-94
2023/09/18 13:10:00;;;;;;;5.38;1.80;;;19.00;93.40;;;;;;6165949;23;20187;-92
2023/09/18 13:12:39;;;;;;;7.22;2.00;;;19.10;94.20;;;;;;6136503;23;20554;-91
2023/09/18 13:15:09;;;;;;;7.95;2.15;;;18.90;94.50;;;;;;6161627;23;20224;-94
2023/09/18 13:17:41;;;;;;;3.55;1.67;;;18.80;95.50;;;;;;6164153;23;20202;-95
2023/09/18 13:22:57;;;;;;;4.28;1.85;;;18.70;95.80;;;;;;6161860;23;20219;-94
2023/09/18 13:25:27;;;;;;;4.70;2.03;;;18.50;96.90;;;;;;6162089;23;20214;-95
2023/09/18 13:27:55;;;;;;;4.03;2.20;;;18.50;97.70;;;;;;6095589;23;20199;-93
2023/09/18 13:33:05;;;;;;;7.28;2.10;;;18.30;99.30;;;;;;6131197;23;21136;-93
2023/09/18 13:35:35;;;;;;;2.80;1.90;;;18.20;99.50;;;;;;6088183;23;20267;-91
2023/09/18 13:43:14;;;;;;;4.88;1.67;;;18.10;99.90;;;;;;6149094;23;20238;-92
2023/09/18 13:45:42;;;;;;;4.53;1.48;;;18.20;99.90;;;;;;6153564;23;20171;-93
2023/09/18 13:48:09;;;;;;;3.92;2.10;;;18.40;99.90;;;;;;6154035;23;20178;-93
2023/09/18 13:50:38;;;;;;;4.82;2.25;;;18.30;99.90;;;;;;6149891;23;20195;-92
2023/09/18 13:53:05;;;;;;;2.65;1.83;;;18.30;99.90;;;;;;6125876;23;20182;-91
2023/09/18 13:55:32;;;;;;;3.55;1.90;;;18.20;99.90;;;;;;6153399;23;20230;-95
2023/09/18 13:57:59;;;;;;;3.80;1.95;;;18.30;99.90;;;;;;6157336;23;20194;-93
2023/09/18 14:00:26;;;;;;;3.78;1.90;;;18.40;99.90;;;;;;6137180;23;20210;-95
2023/09/18 14:02:53;;;;;;;3.58;1.73;;;18.40;99.90;;;;;;6174222;23;20225;-92
2023/09/18 14:05:20;;;;;;;3.80;1.65;;;18.40;99.90;;;;;;6168212;23;20179;-95
2023/09/18 14:07:48;;;;;;;2.72;1.80;;;18.40;99.90;;;;;;6171862;23;20249;-92
2023/09/18 14:10:18;;;;;;;4.97;2.38;;;18.50;99.90;;;;;;6171292;23;20166;-93
2023/09/18 14:12:46;;;;;;;7.63;5.82;;;18.60;99.90;;;;;;6138791;23;20203;-94
2023/09/18 14:15:13;;;;;;;6.03;4.35;;;18.90;99.90;;;;;;6172063;23;20163;-91
2023/09/18 14:20:14;;;;;;;5.45;2.10;;;19.40;99.90;;;;;;6154150;23;20207;-92
2023/09/18 14:22:41;;;;;;;4.07;1.83;;;19.70;99.20;;;;;;6130949;23;20205;-93
2023/09/18 14:25:11;;;;;;;2.92;1.55;;;20.10;98.10;;;;;;6153825;23;20654;-93
2023/09/18 14:30:20;;;;;;;3.63;1.70;;;20.20;95.90;;;;;;6105101;23;20180;-90
2023/09/18 14:32:46;;;;;;;3.08;1.30;;;20.20;94.90;;;;;;6070967;23;20232;-91
2023/09/18 14:35:14;;;;;;;3.00;2.10;;;19.90;95.80;;;;;;6095234;23;20735;-89
2023/09/18 14:37:41;;;;;;;3.47;1.50;;;20.10;96.60;;;;;;6071904;23;20180;-89
2023/09/18 14:40:11;;;;;;;4.07;1.75;;;19.90;96.10;;;;;;6098508;23;20169;-93
2023/09/18 14:42:38;;;;;;;2.53;1.40;;;19.70;96.10;;;;;;6103172;23;20220;-92
2023/09/18 14:45:06;;;;;;;3.75;2.05;;;19.30;96.50;;;;;;6138447;23;20656;-91
2023/09/18 14:47:33;;;;;;;5.75;1.70;;;19.30;97.90;;;;;;6155987;23;20206;-91
2023/09/18 14:50:01;;;;;;;4.20;1.70;;;19.50;97.20;;;;;;6128226;23;20258;-91
2023/09/18 14:52:28;;;;;;;1.90;1.75;;;19.40;97.60;;;;;;6153115;23;20523;-91
2023/09/18 14:54:55;;;;;;;2.35;1.55;;;19.30;97.90;;;;;;6128461;23;20197;-90
2023/09/18 14:57:24;;;;;;;2.20;1.52;;;19.40;97.90;;;;;;6153076;23;20566;-91
2023/09/18 14:59:53;;;;;;;4.72;1.80;;;19.30;97.90;;;;;;6153127;23;20250;-89
2023/09/18 15:02:20;;;;;;;4.40;3.38;;;19.50;96.90;;;;;;6153895;23;20235;-91
2023/09/18 15:04:47;;;;;;;3.33;2.08;;;19.30;97.90;;;;;;6153276;23;20171;-92
2023/09/18 15:07:14;;;;;;;2.67;1.80;;;19.30;97.60;;;;;;6153551;23;20242;-92
2023/09/18 15:09:41;;;;;;;3.28;2.33;;;19.20;98.00;;;;;;6154235;23;20175;-91
2023/09/18 15:12:11;;;;;;;1.70;1.40;;;19.20;97.90;;;;;;6128219;23;20175;-90
2023/09/18 15:14:39;;;;;;;2.00;1.50;;;19.30;97.10;;;;;;6151876;23;20222;-90
2023/09/18 15:17:07;;;;;;;2.03;1.63;;;19.20;97.30;;;;;;6153729;23;20186;-91
2023/09/18 15:19:34;;;;;;;3.47;1.40;;;19.10;97.90;;;;;;6155212;23;20175;-92
2023/09/18 15:22:02;;;;;;;1.60;1.50;;;19.00;97.90;;;;;;6154466;23;20203;-89
2023/09/18 15:24:29;;;;;;;2.38;1.65;;;19.00;97.80;;;;;;6150454;23;20537;-90
2023/09/18 15:26:56;;;;;;;2.35;1.20;;;18.90;98.20;;;;;;6126943;23;20258;-90
2023/09/18 15:29:24;;;;;;;3.10;1.50;;;18.80;98.40;;;;;;6154288;23;20639;-91
2023/09/18 15:31:52;;;;;;;2.63;1.52;;;18.60;98.60;;;;;;6156016;23;20251;-91
2023/09/18 15:34:19;;;;;;;3.22;1.58;;;18.60;99.10;;;;;;6157564;23;20194;-94
2023/09/18 15:36:46;;;;;;;2.22;1.70;;;18.50;99.90;;;;;;6161435;23;20171;-94
2023/09/18 15:39:13;;;;;;;1.50;1.40;;;18.40;99.90;;;;;;6159224;23;20178;-93
2023/09/18 15:41:39;;;;;;;3.80;1.50;;;18.50;99.60;;;;;;6130687;23;20172;-90
2023/09/18 15:44:07;;;;;;;2.38;1.20;;;18.40;99.60;;;;;;6153750;23;20650;-91
2023/09/18 15:46:34;;;;;;;5.07;1.75;;;18.30;99.70;;;;;;6153327;23;20689;-91
2023/09/18 15:49:02;;;;;;;2.40;1.20;;;18.20;99.90;;;;;;6152939;23;20179;-90
2023/09/18 15:51:29;;;;;;;1.35;1.20;;;18.20;99.90;;;;;;6153903;23;20207;-90
2023/09/18 15:53:56;;;;;;;2.78;1.38;;;18.10;99.90;;;;;;6151962;23;20274;-89
2023/09/18 15:56:23;;;;;;;2.55;1.30;;;18.00;99.90;;;;;;6152984;23;20232;-89
2023/09/18 15:58:50;;;;;;;3.10;1.60;;;18.00;99.90;;;;;;6152559;23;20209;-91
2023/09/18 16:01:17;;;;;;;7.18;1.80;;;18.00;99.90;;;;;;6152770;23;20176;-90
2023/09/18 16:03:46;;;;;;;4.15;1.45;;;17.90;99.90;;;;;;6101815;23;20191;-89
2023/09/18 16:06:18;;;;;;;3.55;1.77;;;17.90;99.90;;;;;;6145514;23;20183;-89